Map

Track Data

SID SEASON NUMBER BASIN SUBBASIN NAME ISO_TIME NATURE LAT LON WMO_WIND WMO_PRES WMO_AGENCY TRACK_TYPE DIST2LAND LANDFALL IFLAG USA_AGENCY USA_ATCF_ID USA_LAT USA_LON USA_RECORD USA_STATUS USA_WIND USA_PRES USA_SSHS USA_R34_NE USA_R34_SE USA_R34_SW USA_R34_NW USA_R50_NE USA_R50_SE USA_R50_SW USA_R50_NW USA_R64_NE USA_R64_SE USA_R64_SW USA_R64_NW USA_POCI USA_ROCI USA_RMW USA_EYE TOKYO_LAT TOKYO_LON TOKYO_GRADE TOKYO_WIND TOKYO_PRES TOKYO_R50_DIR TOKYO_R50_LONG TOKYO_R50_SHORT TOKYO_R30_DIR TOKYO_R30_LONG TOKYO_R30_SHORT TOKYO_LAND CMA_LAT CMA_LON CMA_CAT CMA_WIND CMA_PRES HKO_LAT HKO_LON HKO_CAT HKO_WIND HKO_PRES NEWDELHI_LAT NEWDELHI_LON NEWDELHI_GRADE NEWDELHI_WIND NEWDELHI_PRES NEWDELHI_CI NEWDELHI_DP NEWDELHI_POCI REUNION_LAT REUNION_LON REUNION_TYPE REUNION_WIND REUNION_PRES REUNION_TNUM REUNION_CI REUNION_RMW REUNION_R34_NE REUNION_R34_SE REUNION_R34_SW REUNION_R34_NW REUNION_R50_NE REUNION_R50_SE REUNION_R50_SW REUNION_R50_NW REUNION_R64_NE REUNION_R64_SE REUNION_R64_SW REUNION_R64_NW BOM_LAT BOM_LON BOM_TYPE BOM_WIND BOM_PRES BOM_TNUM BOM_CI BOM_RMW BOM_R34_NE BOM_R34_SE BOM_R34_SW BOM_R34_NW BOM_R50_NE BOM_R50_SE BOM_R50_SW BOM_R50_NW BOM_R64_NE BOM_R64_SE BOM_R64_SW BOM_R64_NW BOM_ROCI BOM_POCI BOM_EYE BOM_POS_METHOD BOM_PRES_METHOD NADI_LAT NADI_LON NADI_CAT NADI_WIND NADI_PRES WELLINGTON_LAT WELLINGTON_LON WELLINGTON_WIND WELLINGTON_PRES DS824_LAT DS824_LON DS824_STAGE DS824_WIND DS824_PRES TD9636_LAT TD9636_LON TD9636_STAGE TD9636_WIND TD9636_PRES TD9635_LAT TD9635_LON TD9635_WIND TD9635_PRES TD9635_ROCI NEUMANN_LAT NEUMANN_LON NEUMANN_CLASS NEUMANN_WIND NEUMANN_PRES MLC_LAT MLC_LON MLC_CLASS MLC_WIND MLC_PRES USA_GUST BOM_GUST BOM_GUST_PER REUNION_GUST REUNION_GUST_PER USA_SEAHGT USA_SEARAD_NE USA_SEARAD_SE USA_SEARAD_SW USA_SEARAD_NW STORM_SPEED STORM_DIR
1885310N10138 1885 51 WP MM NOT_NAMED 1885-11-05 16:00:00 NR 10.3000 137.900 main 1258 1033 __________O___ -1 10.3000 137.900 7 73 283
1885310N10138 1885 51 WP MM NOT_NAMED 1885-11-05 18:00:00 NR 10.8265 135.496 main 1033 679 __________P___ -1 10.8265 135.496 7 71 282
1885310N10138 1885 51 WP MM NOT_NAMED 1885-11-05 21:00:00 NR 11.5574 132.022 main 679 373 __________P___ -1 11.5574 132.022 7 66 282
1885310N10138 1885 51 WP MM NOT_NAMED 1885-11-06 00:00:00 NR 12.1811 128.962 main 373 131 __________P___ -1 12.1811 128.962 7 54 282
1885310N10138 1885 51 WP MM NOT_NAMED 1885-11-06 03:00:00 NR 12.6701 126.592 main 131 93 __________P___ -1 12.6701 126.592 7 44 282
1885310N10138 1885 51 WP MM NOT_NAMED 1885-11-06 04:00:00 NR 12.8000 126.000 main 86 49 __________O___ -1 12.8000 126.000 7 29 284
1885310N10138 1885 51 WP MM NOT_NAMED 1885-11-06 06:00:00 NR 13.0110 125.142 main 55 46 __________P___ -1 13.0110 125.142 7 18 287
1885310N10138 1885 51 WP MM NOT_NAMED 1885-11-06 09:00:00 NR 13.2367 124.506 main 46 24 __________P___ -1 13.2367 124.506 7 9 297
1885310N10138 1885 51 WP MM NOT_NAMED 1885-11-06 12:00:00 NR 13.3996 124.365 main 24 15 __________P___ -1 13.3996 124.365 7 3 343
1885310N10138 1885 51 WP MM NOT_NAMED 1885-11-06 15:00:00 NR 13.5466 124.403 main 15 10 __________P___ -1 13.5466 124.403 7 3 13
1885310N10138 1885 51 WP MM NOT_NAMED 1885-11-06 16:00:00 NR 13.6000 124.400 main 10 0 __________O___ -1 13.6000 124.400 3 6 303
1885310N10138 1885 51 WP MM NOT_NAMED 1885-11-06 18:00:00 NR 13.7153 124.139 main 0 0 __________P___ -1 13.7153 124.139 3 8 295
1885310N10138 1885 51 WP MM NOT_NAMED 1885-11-06 21:00:00 NR 13.8941 123.753 main 10 0 __________P___ -1 13.8941 123.753 3 8 298
1885310N10138 1885 51 WP MM NOT_NAMED 1885-11-07 00:00:00 NR 14.1076 123.378 main 15 11 __________P___ -1 14.1076 123.378 3 9 305
1885310N10138 1885 51 WP MM NOT_NAMED 1885-11-07 03:00:00 NR 14.3869 123.017 main 24 24 __________P___ -1 14.3869 123.017 3 9 310
1885310N10138 1885 51 WP MM NOT_NAMED 1885-11-07 04:00:00 NR 14.5000 122.900 main 33 33 __________O___ -1 14.5000 122.900 4 11 316
1885310N10138 1885 51 WP MM NOT_NAMED 1885-11-07 06:00:00 NR 14.7628 122.638 main 67 67 __________P___ -1 14.7628 122.638 4 12 319
1885310N10138 1885 51 WP MM NOT_NAMED 1885-11-07 09:00:00 NR 15.2261 122.258 main 85 24 __________P___ -1 15.2261 122.258 4 12 325
1885310N10138 1885 51 WP MM NOT_NAMED 1885-11-07 12:00:00 NR 15.7502 121.921 main 24 0 __________P___ -1 15.7502 121.921 4 12 332
1885310N10138 1885 51 WP MM NOT_NAMED 1885-11-07 15:00:00 NR 16.3098 121.663 main 0 0 __________P___ -1 16.3098 121.663 4 12 338
1885310N10138 1885 51 WP MM NOT_NAMED 1885-11-07 16:00:00 NR 16.5000 121.600 main 0 0 __________O___ -1 16.5000 121.600 4 12 342
1885310N10138 1885 51 WP MM NOT_NAMED 1885-11-07 18:00:00 NR 16.8579 121.479 main 0 0 __________P___ -1 16.8579 121.479 4 11 347
1885310N10138 1885 51 WP MM NOT_NAMED 1885-11-07 21:00:00 NR 17.4137 121.379 main 0 0 __________P___ -1 17.4137 121.379 4 11 356
1885310N10138 1885 51 WP MM NOT_NAMED 1885-11-08 00:00:00 NR 17.9924 121.389 main 0 0 __________P___ -1 17.9924 121.389 4 12 7
1885310N10138 1885 51 WP MM NOT_NAMED 1885-11-08 03:00:00 NR 18.5943 121.524 main 15 15 __________P___ -1 18.5943 121.524 4 13 14
1885310N10138 1885 51 WP MM NOT_NAMED 1885-11-08 04:00:00 NR 18.8000 121.600 main 39 39 __________O___ -1 18.8000 121.600 7 14 19
1885310N10138 1885 51 WP MM NOT_NAMED 1885-11-08 06:00:00 NR 19.2553 121.770 main 98 98 __________P___ -1 19.2553 121.770 7 15 24
1885310N10138 1885 51 WP MM NOT_NAMED 1885-11-08 09:00:00 NR 19.9581 122.138 main 178 178 __________P___ -1 19.9581 122.138 7 16 30
1885310N10138 1885 51 WP MM NOT_NAMED 1885-11-08 12:00:00 NR 20.6349 122.621 main 228 223 __________P___ -1 20.6349 122.621 7 16 38
1885310N10138 1885 51 WP MM NOT_NAMED 1885-11-08 15:00:00 NR 21.2296 123.194 main 250 247 __________P___ -1 21.2296 123.194 7 16 44
1885310N10138 1885 51 WP MM NOT_NAMED 1885-11-08 16:00:00 NR 21.4000 123.400 main 264 264 __________O___ -1 21.4000 123.400 7 15 52
1885310N10138 1885 51 WP MM NOT_NAMED 1885-11-08 18:00:00 NR 21.6912 123.830 main 292 295 __________P___ -1 21.6912 123.830 7 14 59
1885310N10138 1885 51 WP MM NOT_NAMED 1885-11-08 21:00:00 NR 22.0223 124.511 main 341 341 __________P___ -1 22.0223 124.511 7 14 66
1885310N10138 1885 51 WP MM NOT_NAMED 1885-11-09 00:00:00 NR 22.2606 125.224 main 399 409 __________P___ -1 22.2606 125.224 7 14 72
1885310N10138 1885 51 WP MM NOT_NAMED 1885-11-09 03:00:00 NR 22.4443 125.955 main 477 473 __________P___ -1 22.4443 125.955 7 14 75
1885310N10138 1885 51 WP MM NOT_NAMED 1885-11-09 04:00:00 NR 22.5000 126.200 main 491 __________O___ -1 22.5000 126.200 7 14 76

Digital Typhoon Data and Search

About IBTrACS Database

This database is a web-friendly format of International Best Track Archive for Climate Stewardship (IBTrACS), a global best track data archive curated by NOAA dating back to 1842.

Updated: 2021-10-21